sensor_id;sensor_type;location;lat;lon;timestamp;P1;durP1;ratioP1;P2;durP2;ratioP2
35444;SDS011;21562;49.476;6.086;2022-09-12T00:00:42;9.07;;;4.22;;
35444;SDS011;21562;49.476;6.086;2022-09-12T00:03:07;13.13;;;4.18;;
35444;SDS011;21562;49.476;6.086;2022-09-12T00:05:33;8.55;;;5.07;;
35444;SDS011;21562;49.476;6.086;2022-09-12T00:08:04;8.65;;;4.15;;
35444;SDS011;21562;49.476;6.086;2022-09-12T00:10:30;9.10;;;4.40;;
35444;SDS011;21562;49.476;6.086;2022-09-12T00:12:55;9.52;;;3.83;;
35444;SDS011;21562;49.476;6.086;2022-09-12T00:15:21;9.52;;;4.50;;
35444;SDS011;21562;49.476;6.086;2022-09-12T00:17:46;7.72;;;5.13;;
35444;SDS011;21562;49.476;6.086;2022-09-12T00:20:12;7.43;;;4.40;;
35444;SDS011;21562;49.476;6.086;2022-09-12T00:22:38;6.93;;;4.07;;
35444;SDS011;21562;49.476;6.086;2022-09-12T00:25:03;4.72;;;3.78;;
35444;SDS011;21562;49.476;6.086;2022-09-12T00:27:30;10.10;;;4.47;;
35444;SDS011;21562;49.476;6.086;2022-09-12T00:29:55;11.52;;;4.47;;
35444;SDS011;21562;49.476;6.086;2022-09-12T00:32:21;8.82;;;4.70;;
35444;SDS011;21562;49.476;6.086;2022-09-12T00:34:47;5.63;;;4.60;;
35444;SDS011;21562;49.476;6.086;2022-09-12T00:37:12;11.98;;;4.40;;
35444;SDS011;21562;49.476;6.086;2022-09-12T00:39:38;5.22;;;3.90;;
35444;SDS011;21562;49.476;6.086;2022-09-12T00:42:04;5.63;;;4.13;;
35444;SDS011;21562;49.476;6.086;2022-09-12T00:46:59;11.93;;;4.22;;
35444;SDS011;21562;49.476;6.086;2022-09-12T00:52:04;13.68;;;4.15;;
35444;SDS011;21562;49.476;6.086;2022-09-12T00:54:44;7.82;;;4.45;;
35444;SDS011;21562;49.476;6.086;2022-09-12T00:57:14;10.57;;;4.47;;
35444;SDS011;21562;49.476;6.086;2022-09-12T00:59:53;9.77;;;3.97;;
35444;SDS011;21562;49.476;6.086;2022-09-12T01:02:23;7.22;;;3.67;;
35444;SDS011;21562;49.476;6.086;2022-09-12T01:04:49;4.93;;;4.22;;
35444;SDS011;21562;49.476;6.086;2022-09-12T01:07:15;9.35;;;3.65;;
35444;SDS011;21562;49.476;6.086;2022-09-12T01:09:41;8.27;;;4.15;;
35444;SDS011;21562;49.476;6.086;2022-09-12T01:12:09;9.73;;;4.07;;
35444;SDS011;21562;49.476;6.086;2022-09-12T01:14:36;5.55;;;3.55;;
35444;SDS011;21562;49.476;6.086;2022-09-12T01:17:02;8.95;;;3.72;;
35444;SDS011;21562;49.476;6.086;2022-09-12T01:30:22;8.55;;;4.25;;
35444;SDS011;21562;49.476;6.086;2022-09-12T01:41:24;8.13;;;4.18;;
35444;SDS011;21562;49.476;6.086;2022-09-12T01:49:34;9.10;;;3.92;;
35444;SDS011;21562;49.476;6.086;2022-09-12T01:54:54;5.05;;;3.92;;
35444;SDS011;21562;49.476;6.086;2022-09-12T01:57:33;15.32;;;4.15;;
35444;SDS011;21562;49.476;6.086;2022-09-12T02:00:23;6.20;;;3.72;;
35444;SDS011;21562;49.476;6.086;2022-09-12T02:02:50;5.85;;;3.83;;
35444;SDS011;21562;49.476;6.086;2022-09-12T02:10:32;7.22;;;3.88;;
35444;SDS011;21562;49.476;6.086;2022-09-12T02:13:06;6.30;;;3.97;;
35444;SDS011;21562;49.476;6.086;2022-09-12T02:15:39;12.38;;;3.80;;
35444;SDS011;21562;49.476;6.086;2022-09-12T02:18:07;8.82;;;3.97;;
35444;SDS011;21562;49.476;6.086;2022-09-12T02:20:42;5.90;;;3.80;;
35444;SDS011;21562;49.476;6.086;2022-09-12T02:23:12;8.63;;;4.10;;
35444;SDS011;21562;49.476;6.086;2022-09-12T02:25:42;9.68;;;3.80;;
35444;SDS011;21562;49.476;6.086;2022-09-12T02:28:12;7.88;;;4.10;;
35444;SDS011;21562;49.476;6.086;2022-09-12T02:30:43;10.30;;;4.65;;
35444;SDS011;21562;49.476;6.086;2022-09-12T02:36:32;5.45;;;4.05;;
35444;SDS011;21562;49.476;6.086;2022-09-12T02:39:18;7.90;;;4.45;;
35444;SDS011;21562;49.476;6.086;2022-09-12T02:41:51;7.95;;;3.47;;
35444;SDS011;21562;49.476;6.086;2022-09-12T02:44:20;7.55;;;4.20;;
35444;SDS011;21562;49.476;6.086;2022-09-12T02:46:49;7.55;;;3.85;;
35444;SDS011;21562;49.476;6.086;2022-09-12T02:49:18;10.85;;;4.47;;
35444;SDS011;21562;49.476;6.086;2022-09-12T02:51:44;12.07;;;4.13;;
35444;SDS011;21562;49.476;6.086;2022-09-12T02:54:11;10.38;;;4.85;;
35444;SDS011;21562;49.476;6.086;2022-09-12T02:56:39;13.23;;;5.40;;
35444;SDS011;21562;49.476;6.086;2022-09-12T02:59:07;13.77;;;4.57;;
35444;SDS011;21562;49.476;6.086;2022-09-12T03:07:31;11.30;;;5.25;;
35444;SDS011;21562;49.476;6.086;2022-09-12T03:15:43;6.90;;;5.72;;
35444;SDS011;21562;49.476;6.086;2022-09-12T03:21:17;11.07;;;5.35;;
35444;SDS011;21562;49.476;6.086;2022-09-12T03:23:59;13.45;;;5.97;;
35444;SDS011;21562;49.476;6.086;2022-09-12T03:26:47;10.52;;;5.60;;
35444;SDS011;21562;49.476;6.086;2022-09-12T03:29:19;11.32;;;5.97;;
35444;SDS011;21562;49.476;6.086;2022-09-12T03:31:47;15.30;;;5.75;;
35444;SDS011;21562;49.476;6.086;2022-09-12T03:34:18;12.18;;;5.72;;
35444;SDS011;21562;49.476;6.086;2022-09-12T03:36:45;11.88;;;6.68;;
35444;SDS011;21562;49.476;6.086;2022-09-12T03:39:11;12.30;;;5.82;;
35444;SDS011;21562;49.476;6.086;2022-09-12T03:41:37;16.17;;;6.57;;
35444;SDS011;21562;49.476;6.086;2022-09-12T03:44:03;11.88;;;5.68;;
35444;SDS011;21562;49.476;6.086;2022-09-12T03:46:29;12.15;;;6.47;;
35444;SDS011;21562;49.476;6.086;2022-09-12T03:48:54;15.32;;;8.13;;
35444;SDS011;21562;49.476;6.086;2022-09-12T03:51:20;19.13;;;7.18;;
35444;SDS011;21562;49.476;6.086;2022-09-12T03:53:46;16.42;;;7.00;;
35444;SDS011;21562;49.476;6.086;2022-09-12T03:56:12;14.43;;;7.18;;
35444;SDS011;21562;49.476;6.086;2022-09-12T03:58:38;13.05;;;6.05;;
35444;SDS011;21562;49.476;6.086;2022-09-12T04:01:14;16.00;;;7.00;;
35444;SDS011;21562;49.476;6.086;2022-09-12T04:03:41;15.50;;;6.55;;
35444;SDS011;21562;49.476;6.086;2022-09-12T04:06:09;12.30;;;7.28;;
35444;SDS011;21562;49.476;6.086;2022-09-12T04:08:36;15.73;;;7.30;;
35444;SDS011;21562;49.476;6.086;2022-09-12T04:11:03;14.27;;;7.30;;
35444;SDS011;21562;49.476;6.086;2022-09-12T04:13:30;14.95;;;7.53;;
35444;SDS011;21562;49.476;6.086;2022-09-12T04:15:59;15.88;;;7.63;;
35444;SDS011;21562;49.476;6.086;2022-09-12T04:18:25;15.40;;;8.05;;
35444;SDS011;21562;49.476;6.086;2022-09-12T04:20:51;14.10;;;7.25;;
35444;SDS011;21562;49.476;6.086;2022-09-12T04:23:17;13.35;;;7.80;;
35444;SDS011;21562;49.476;6.086;2022-09-12T04:25:42;14.25;;;7.70;;
35444;SDS011;21562;49.476;6.086;2022-09-12T04:28:08;14.88;;;8.13;;
35444;SDS011;21562;49.476;6.086;2022-09-12T04:30:34;16.67;;;8.32;;
35444;SDS011;21562;49.476;6.086;2022-09-12T04:33:00;17.77;;;8.07;;
35444;SDS011;21562;49.476;6.086;2022-09-12T04:35:26;16.70;;;8.70;;
35444;SDS011;21562;49.476;6.086;2022-09-12T04:37:51;16.77;;;9.05;;
35444;SDS011;21562;49.476;6.086;2022-09-12T04:40:17;14.15;;;8.05;;
35444;SDS011;21562;49.476;6.086;2022-09-12T04:42:43;19.40;;;8.88;;
35444;SDS011;21562;49.476;6.086;2022-09-12T04:45:09;16.05;;;8.40;;
35444;SDS011;21562;49.476;6.086;2022-09-12T04:47:35;13.38;;;8.40;;
35444;SDS011;21562;49.476;6.086;2022-09-12T04:50:00;18.35;;;8.75;;
35444;SDS011;21562;49.476;6.086;2022-09-12T04:52:26;19.15;;;8.73;;
35444;SDS011;21562;49.476;6.086;2022-09-12T04:54:52;21.83;;;8.98;;
35444;SDS011;21562;49.476;6.086;2022-09-12T04:57:18;19.48;;;9.77;;
35444;SDS011;21562;49.476;6.086;2022-09-12T04:59:43;15.07;;;8.65;;
35444;SDS011;21562;49.476;6.086;2022-09-12T05:02:09;15.95;;;8.85;;
35444;SDS011;21562;49.476;6.086;2022-09-12T05:04:34;17.02;;;8.13;;
35444;SDS011;21562;49.476;6.086;2022-09-12T05:07:00;21.67;;;8.20;;
35444;SDS011;21562;49.476;6.086;2022-09-12T05:09:26;15.70;;;8.45;;
35444;SDS011;21562;49.476;6.086;2022-09-12T05:11:53;17.00;;;8.35;;
35444;SDS011;21562;49.476;6.086;2022-09-12T05:14:18;15.27;;;8.75;;
35444;SDS011;21562;49.476;6.086;2022-09-12T05:16:44;22.35;;;9.85;;
35444;SDS011;21562;49.476;6.086;2022-09-12T05:19:10;12.98;;;7.50;;
35444;SDS011;21562;49.476;6.086;2022-09-12T05:21:36;14.85;;;7.72;;
35444;SDS011;21562;49.476;6.086;2022-09-12T05:24:02;17.58;;;6.97;;
35444;SDS011;21562;49.476;6.086;2022-09-12T05:26:30;10.40;;;7.10;;
35444;SDS011;21562;49.476;6.086;2022-09-12T05:28:56;12.15;;;7.43;;
35444;SDS011;21562;49.476;6.086;2022-09-12T05:31:22;12.32;;;6.65;;
35444;SDS011;21562;49.476;6.086;2022-09-12T05:33:50;13.90;;;7.63;;
35444;SDS011;21562;49.476;6.086;2022-09-12T05:36:18;12.55;;;7.65;;
35444;SDS011;21562;49.476;6.086;2022-09-12T05:38:48;13.65;;;7.35;;
35444;SDS011;21562;49.476;6.086;2022-09-12T05:41:18;12.48;;;6.90;;
35444;SDS011;21562;49.476;6.086;2022-09-12T05:43:45;12.40;;;7.28;;
35444;SDS011;21562;49.476;6.086;2022-09-12T05:46:16;23.17;;;7.05;;
35444;SDS011;21562;49.476;6.086;2022-09-12T05:48:43;17.00;;;6.50;;
35444;SDS011;21562;49.476;6.086;2022-09-12T05:51:15;17.45;;;7.13;;
35444;SDS011;21562;49.476;6.086;2022-09-12T05:53:45;9.63;;;6.38;;
35444;SDS011;21562;49.476;6.086;2022-09-12T05:56:13;18.92;;;6.90;;
35444;SDS011;21562;49.476;6.086;2022-09-12T05:58:42;10.63;;;6.32;;
35444;SDS011;21562;49.476;6.086;2022-09-12T06:01:13;14.35;;;7.15;;
35444;SDS011;21562;49.476;6.086;2022-09-12T06:03:41;16.42;;;7.25;;
35444;SDS011;21562;49.476;6.086;2022-09-12T06:06:08;11.73;;;7.25;;
35444;SDS011;21562;49.476;6.086;2022-09-12T06:08:37;15.15;;;6.55;;
35444;SDS011;21562;49.476;6.086;2022-09-12T06:11:05;12.68;;;6.70;;
35444;SDS011;21562;49.476;6.086;2022-09-12T06:13:33;14.07;;;7.18;;
35444;SDS011;21562;49.476;6.086;2022-09-12T06:16:08;8.90;;;5.80;;
35444;SDS011;21562;49.476;6.086;2022-09-12T06:18:35;21.33;;;7.00;;
35444;SDS011;21562;49.476;6.086;2022-09-12T06:21:09;9.68;;;6.35;;
35444;SDS011;21562;49.476;6.086;2022-09-12T06:23:36;12.65;;;6.45;;
35444;SDS011;21562;49.476;6.086;2022-09-12T06:26:04;12.07;;;6.10;;
35444;SDS011;21562;49.476;6.086;2022-09-12T06:28:31;11.82;;;5.68;;
35444;SDS011;21562;49.476;6.086;2022-09-12T06:31:18;12.65;;;5.60;;
35444;SDS011;21562;49.476;6.086;2022-09-12T06:33:46;11.38;;;6.72;;
35444;SDS011;21562;49.476;6.086;2022-09-12T06:36:18;16.67;;;7.60;;
35444;SDS011;21562;49.476;6.086;2022-09-12T06:38:45;14.18;;;6.72;;
35444;SDS011;21562;49.476;6.086;2022-09-12T06:41:12;12.82;;;5.57;;
35444;SDS011;21562;49.476;6.086;2022-09-12T06:43:39;9.18;;;5.38;;
35444;SDS011;21562;49.476;6.086;2022-09-12T06:46:06;9.60;;;5.45;;
35444;SDS011;21562;49.476;6.086;2022-09-12T06:48:32;11.55;;;6.78;;
35444;SDS011;21562;49.476;6.086;2022-09-12T06:51:02;11.80;;;6.85;;
35444;SDS011;21562;49.476;6.086;2022-09-12T06:53:30;10.32;;;6.93;;
35444;SDS011;21562;49.476;6.086;2022-09-12T06:56:01;12.05;;;5.88;;
35444;SDS011;21562;49.476;6.086;2022-09-12T06:58:29;11.23;;;6.43;;
35444;SDS011;21562;49.476;6.086;2022-09-12T07:01:06;13.75;;;6.75;;
35444;SDS011;21562;49.476;6.086;2022-09-12T07:03:33;13.20;;;6.35;;
35444;SDS011;21562;49.476;6.086;2022-09-12T07:06:04;15.40;;;7.63;;
35444;SDS011;21562;49.476;6.086;2022-09-12T07:08:31;17.10;;;7.50;;
35444;SDS011;21562;49.476;6.086;2022-09-12T07:10:58;22.90;;;9.35;;
35444;SDS011;21562;49.476;6.086;2022-09-12T07:13:33;24.50;;;8.52;;
35444;SDS011;21562;49.476;6.086;2022-09-12T07:16:02;19.00;;;8.27;;
35444;SDS011;21562;49.476;6.086;2022-09-12T07:18:29;21.55;;;8.63;;
35444;SDS011;21562;49.476;6.086;2022-09-12T07:20:55;27.10;;;9.95;;
35444;SDS011;21562;49.476;6.086;2022-09-12T07:23:23;22.35;;;9.35;;
35444;SDS011;21562;49.476;6.086;2022-09-12T07:25:52;12.55;;;9.27;;
35444;SDS011;21562;49.476;6.086;2022-09-12T07:28:18;13.25;;;8.73;;
35444;SDS011;21562;49.476;6.086;2022-09-12T07:30:44;16.73;;;9.07;;
35444;SDS011;21562;49.476;6.086;2022-09-12T07:33:10;23.05;;;10.45;;
35444;SDS011;21562;49.476;6.086;2022-09-12T07:35:35;20.67;;;9.60;;
35444;SDS011;21562;49.476;6.086;2022-09-12T07:38:01;13.35;;;8.43;;
35444;SDS011;21562;49.476;6.086;2022-09-12T07:40:27;16.20;;;9.00;;
35444;SDS011;21562;49.476;6.086;2022-09-12T07:42:53;18.08;;;9.10;;
35444;SDS011;21562;49.476;6.086;2022-09-12T07:45:19;14.35;;;9.77;;
35444;SDS011;21562;49.476;6.086;2022-09-12T07:47:44;14.98;;;8.70;;
35444;SDS011;21562;49.476;6.086;2022-09-12T07:50:10;16.25;;;9.00;;
35444;SDS011;21562;49.476;6.086;2022-09-12T07:52:36;12.77;;;8.20;;
35444;SDS011;21562;49.476;6.086;2022-09-12T07:55:01;12.68;;;9.13;;
35444;SDS011;21562;49.476;6.086;2022-09-12T07:57:27;12.48;;;9.00;;
35444;SDS011;21562;49.476;6.086;2022-09-12T07:59:53;13.73;;;9.77;;
35444;SDS011;21562;49.476;6.086;2022-09-12T08:02:18;10.95;;;7.63;;
35444;SDS011;21562;49.476;6.086;2022-09-12T08:04:45;16.67;;;8.90;;
35444;SDS011;21562;49.476;6.086;2022-09-12T08:07:12;17.38;;;9.45;;
35444;SDS011;21562;49.476;6.086;2022-09-12T08:09:37;11.52;;;8.40;;
35444;SDS011;21562;49.476;6.086;2022-09-12T08:12:03;13.75;;;8.43;;
35444;SDS011;21562;49.476;6.086;2022-09-12T08:14:29;11.10;;;8.07;;
35444;SDS011;21562;49.476;6.086;2022-09-12T08:16:54;12.48;;;7.57;;
35444;SDS011;21562;49.476;6.086;2022-09-12T08:19:20;11.82;;;7.82;;
35444;SDS011;21562;49.476;6.086;2022-09-12T08:21:46;9.85;;;7.50;;
35444;SDS011;21562;49.476;6.086;2022-09-12T08:24:12;8.38;;;6.70;;
35444;SDS011;21562;49.476;6.086;2022-09-12T08:26:38;14.48;;;6.93;;
35444;SDS011;21562;49.476;6.086;2022-09-12T08:29:04;11.18;;;7.38;;
35444;SDS011;21562;49.476;6.086;2022-09-12T08:31:29;9.60;;;7.55;;
35444;SDS011;21562;49.476;6.086;2022-09-12T08:34:02;10.52;;;6.97;;
35444;SDS011;21562;49.476;6.086;2022-09-12T08:36:29;11.52;;;6.43;;
35444;SDS011;21562;49.476;6.086;2022-09-12T08:38:56;10.82;;;6.18;;
35444;SDS011;21562;49.476;6.086;2022-09-12T08:41:40;12.32;;;6.43;;
35444;SDS011;21562;49.476;6.086;2022-09-12T08:52:26;7.82;;;5.25;;
35444;SDS011;21562;49.476;6.086;2022-09-12T08:54:59;8.90;;;5.03;;
35444;SDS011;21562;49.476;6.086;2022-09-12T08:57:26;11.43;;;5.93;;
35444;SDS011;21562;49.476;6.086;2022-09-12T08:59:52;7.60;;;5.38;;
35444;SDS011;21562;49.476;6.086;2022-09-12T09:16:30;8.95;;;4.53;;
35444;SDS011;21562;49.476;6.086;2022-09-12T09:19:08;6.75;;;4.90;;
35444;SDS011;21562;49.476;6.086;2022-09-12T09:21:56;7.50;;;4.70;;
35444;SDS011;21562;49.476;6.086;2022-09-12T09:24:26;9.88;;;4.60;;
35444;SDS011;21562;49.476;6.086;2022-09-12T09:27:09;6.78;;;4.45;;
35444;SDS011;21562;49.476;6.086;2022-09-12T09:29:57;7.50;;;5.35;;
35444;SDS011;21562;49.476;6.086;2022-09-12T09:32:29;12.52;;;4.95;;
35444;SDS011;21562;49.476;6.086;2022-09-12T09:35:14;5.82;;;4.25;;
35444;SDS011;21562;49.476;6.086;2022-09-12T09:37:43;10.52;;;5.07;;
35444;SDS011;21562;49.476;6.086;2022-09-12T09:40:33;6.70;;;3.90;;
35444;SDS011;21562;49.476;6.086;2022-09-12T09:43:18;5.50;;;4.25;;
35444;SDS011;21562;49.476;6.086;2022-09-12T09:45:49;7.53;;;4.50;;
35444;SDS011;21562;49.476;6.086;2022-09-12T09:51:12;4.13;;;3.70;;
35444;SDS011;21562;49.476;6.086;2022-09-12T09:53:58;5.32;;;3.65;;
35444;SDS011;21562;49.476;6.086;2022-09-12T09:56:30;7.35;;;3.45;;
35444;SDS011;21562;49.476;6.086;2022-09-12T09:59:11;5.10;;;3.88;;
35444;SDS011;21562;49.476;6.086;2022-09-12T10:01:48;4.05;;;3.08;;
35444;SDS011;21562;49.476;6.086;2022-09-12T10:04:16;6.03;;;4.60;;
35444;SDS011;21562;49.476;6.086;2022-09-12T10:06:46;7.15;;;3.70;;
35444;SDS011;21562;49.476;6.086;2022-09-12T10:11:53;5.32;;;3.53;;
35444;SDS011;21562;49.476;6.086;2022-09-12T10:16:55;6.22;;;3.00;;
35444;SDS011;21562;49.476;6.086;2022-09-12T10:19:34;4.05;;;3.08;;
35444;SDS011;21562;49.476;6.086;2022-09-12T10:22:02;6.88;;;3.75;;
35444;SDS011;21562;49.476;6.086;2022-09-12T10:24:33;3.72;;;3.08;;
35444;SDS011;21562;49.476;6.086;2022-09-12T10:27:06;4.60;;;3.03;;
35444;SDS011;21562;49.476;6.086;2022-09-12T10:29:33;5.10;;;2.97;;
35444;SDS011;21562;49.476;6.086;2022-09-12T10:32:07;5.05;;;3.05;;
35444;SDS011;21562;49.476;6.086;2022-09-12T10:34:34;7.45;;;2.95;;
35444;SDS011;21562;49.476;6.086;2022-09-12T10:37:04;4.40;;;2.60;;
35444;SDS011;21562;49.476;6.086;2022-09-12T10:39:32;5.57;;;2.75;;
35444;SDS011;21562;49.476;6.086;2022-09-12T10:42:00;5.50;;;2.42;;
35444;SDS011;21562;49.476;6.086;2022-09-12T10:44:30;7.28;;;3.03;;
35444;SDS011;21562;49.476;6.086;2022-09-12T10:46:58;2.45;;;2.25;;
35444;SDS011;21562;49.476;6.086;2022-09-12T10:49:43;3.78;;;2.42;;
35444;SDS011;21562;49.476;6.086;2022-09-12T10:52:21;2.92;;;2.38;;
35444;SDS011;21562;49.476;6.086;2022-09-12T10:54:49;3.13;;;2.20;;
35444;SDS011;21562;49.476;6.086;2022-09-12T11:00:34;3.05;;;2.13;;
35444;SDS011;21562;49.476;6.086;2022-09-12T11:03:08;5.07;;;2.33;;
35444;SDS011;21562;49.476;6.086;2022-09-12T11:08:28;4.18;;;1.90;;
35444;SDS011;21562;49.476;6.086;2022-09-12T11:16:53;1.48;;;1.25;;
35444;SDS011;21562;49.476;6.086;2022-09-12T11:19:46;9.18;;;1.77;;
35444;SDS011;21562;49.476;6.086;2022-09-12T11:22:38;2.35;;;1.77;;
35444;SDS011;21562;49.476;6.086;2022-09-12T11:25:30;3.25;;;1.70;;
35444;SDS011;21562;49.476;6.086;2022-09-12T11:36:33;2.25;;;1.10;;
35444;SDS011;21562;49.476;6.086;2022-09-12T11:39:13;2.38;;;1.38;;
35444;SDS011;21562;49.476;6.086;2022-09-12T11:41:42;2.70;;;1.42;;
35444;SDS011;21562;49.476;6.086;2022-09-12T11:44:20;3.80;;;1.08;;
35444;SDS011;21562;49.476;6.086;2022-09-12T11:46:47;2.75;;;0.90;;
35444;SDS011;21562;49.476;6.086;2022-09-12T11:59:57;0.90;;;0.80;;
35444;SDS011;21562;49.476;6.086;2022-09-12T12:02:25;2.13;;;0.60;;
35444;SDS011;21562;49.476;6.086;2022-09-12T12:07:27;1.27;;;0.63;;
35444;SDS011;21562;49.476;6.086;2022-09-12T12:10:04;1.30;;;0.65;;
35444;SDS011;21562;49.476;6.086;2022-09-12T12:12:30;2.58;;;0.85;;
35444;SDS011;21562;49.476;6.086;2022-09-12T12:14:56;11.45;;;1.27;;
35444;SDS011;21562;49.476;6.086;2022-09-12T12:17:23;4.00;;;1.38;;
35444;SDS011;21562;49.476;6.086;2022-09-12T12:19:58;4.28;;;1.15;;
35444;SDS011;21562;49.476;6.086;2022-09-12T12:22:26;5.50;;;0.85;;
35444;SDS011;21562;49.476;6.086;2022-09-12T12:35:36;3.03;;;1.63;;
35444;SDS011;21562;49.476;6.086;2022-09-12T12:38:02;1.75;;;1.40;;
35444;SDS011;21562;49.476;6.086;2022-09-12T12:40:30;4.00;;;1.55;;
35444;SDS011;21562;49.476;6.086;2022-09-12T12:47:54;1.50;;;1.15;;
35444;SDS011;21562;49.476;6.086;2022-09-12T12:50:47;2.20;;;1.35;;
35444;SDS011;21562;49.476;6.086;2022-09-12T12:53:20;1.88;;;1.50;;
35444;SDS011;21562;49.476;6.086;2022-09-12T12:55:50;2.30;;;1.30;;
35444;SDS011;21562;49.476;6.086;2022-09-12T13:01:19;2.80;;;1.30;;
35444;SDS011;21562;49.476;6.086;2022-09-12T13:03:52;2.95;;;1.25;;
35444;SDS011;21562;49.476;6.086;2022-09-12T13:06:33;3.83;;;1.27;;
35444;SDS011;21562;49.476;6.086;2022-09-12T13:09:01;1.42;;;1.10;;
35444;SDS011;21562;49.476;6.086;2022-09-12T13:11:35;2.00;;;1.35;;
35444;SDS011;21562;49.476;6.086;2022-09-12T13:14:03;2.20;;;1.90;;
35444;SDS011;21562;49.476;6.086;2022-09-12T13:19:11;2.97;;;1.23;;
35444;SDS011;21562;49.476;6.086;2022-09-12T13:21:53;1.65;;;1.15;;
35444;SDS011;21562;49.476;6.086;2022-09-12T13:24:20;1.20;;;1.00;;
35444;SDS011;21562;49.476;6.086;2022-09-12T13:26:47;1.45;;;1.00;;
35444;SDS011;21562;49.476;6.086;2022-09-12T13:29:14;2.90;;;0.95;;
35444;SDS011;21562;49.476;6.086;2022-09-12T13:31:43;1.42;;;0.90;;
35444;SDS011;21562;49.476;6.086;2022-09-12T13:34:12;2.88;;;1.30;;
35444;SDS011;21562;49.476;6.086;2022-09-12T13:40:02;1.92;;;1.20;;
35444;SDS011;21562;49.476;6.086;2022-09-12T13:45:39;1.63;;;1.00;;
35444;SDS011;21562;49.476;6.086;2022-09-12T13:48:09;2.05;;;1.08;;
35444;SDS011;21562;49.476;6.086;2022-09-12T13:53:13;2.15;;;1.10;;
35444;SDS011;21562;49.476;6.086;2022-09-12T13:55:42;1.02;;;0.90;;
35444;SDS011;21562;49.476;6.086;2022-09-12T13:58:19;1.45;;;1.00;;
35444;SDS011;21562;49.476;6.086;2022-09-12T14:00:46;1.88;;;1.10;;
35444;SDS011;21562;49.476;6.086;2022-09-12T14:03:32;1.77;;;1.20;;
35444;SDS011;21562;49.476;6.086;2022-09-12T14:06:21;1.80;;;1.17;;
35444;SDS011;21562;49.476;6.086;2022-09-12T14:08:50;1.95;;;1.20;;
35444;SDS011;21562;49.476;6.086;2022-09-12T14:11:26;1.83;;;1.13;;
35444;SDS011;21562;49.476;6.086;2022-09-12T14:13:53;3.35;;;1.23;;
35444;SDS011;21562;49.476;6.086;2022-09-12T14:16:20;4.50;;;1.20;;
35444;SDS011;21562;49.476;6.086;2022-09-12T14:18:47;3.60;;;1.48;;
35444;SDS011;21562;49.476;6.086;2022-09-12T14:21:36;1.30;;;0.95;;
35444;SDS011;21562;49.476;6.086;2022-09-12T14:24:02;2.90;;;1.27;;
35444;SDS011;21562;49.476;6.086;2022-09-12T14:26:32;1.60;;;1.15;;
35444;SDS011;21562;49.476;6.086;2022-09-12T14:29:00;1.73;;;1.30;;
35444;SDS011;21562;49.476;6.086;2022-09-12T14:31:30;1.88;;;1.40;;
35444;SDS011;21562;49.476;6.086;2022-09-12T14:34:08;2.25;;;1.00;;
35444;SDS011;21562;49.476;6.086;2022-09-12T14:36:35;1.98;;;1.25;;
35444;SDS011;21562;49.476;6.086;2022-09-12T14:39:16;2.97;;;1.20;;
35444;SDS011;21562;49.476;6.086;2022-09-12T14:41:46;3.53;;;1.20;;
35444;SDS011;21562;49.476;6.086;2022-09-12T14:44:17;4.85;;;1.33;;
35444;SDS011;21562;49.476;6.086;2022-09-12T14:46:47;2.90;;;1.45;;
35444;SDS011;21562;49.476;6.086;2022-09-12T14:49:18;2.38;;;1.25;;
35444;SDS011;21562;49.476;6.086;2022-09-12T14:56:55;9.10;;;1.10;;
35444;SDS011;21562;49.476;6.086;2022-09-12T14:59:30;1.45;;;0.70;;
35444;SDS011;21562;49.476;6.086;2022-09-12T15:02:37;5.47;;;0.82;;
35444;SDS011;21562;49.476;6.086;2022-09-12T15:07:37;2.53;;;1.00;;
35444;SDS011;21562;49.476;6.086;2022-09-12T15:10:30;3.10;;;1.13;;
35444;SDS011;21562;49.476;6.086;2022-09-12T15:15:45;0.82;;;0.70;;
35444;SDS011;21562;49.476;6.086;2022-09-12T15:18:15;1.35;;;0.80;;
35444;SDS011;21562;49.476;6.086;2022-09-12T15:20:43;3.05;;;0.70;;
35444;SDS011;21562;49.476;6.086;2022-09-12T15:23:14;3.17;;;0.60;;
35444;SDS011;21562;49.476;6.086;2022-09-12T15:25:57;3.80;;;0.80;;
35444;SDS011;21562;49.476;6.086;2022-09-12T15:28:23;0.60;;;0.52;;
35444;SDS011;21562;49.476;6.086;2022-09-12T15:30:49;3.97;;;0.80;;
35444;SDS011;21562;49.476;6.086;2022-09-12T15:33:17;1.95;;;0.70;;
35444;SDS011;21562;49.476;6.086;2022-09-12T15:35:45;1.70;;;1.10;;
35444;SDS011;21562;49.476;6.086;2022-09-12T15:38:10;1.15;;;0.68;;
35444;SDS011;21562;49.476;6.086;2022-09-12T15:40:36;2.15;;;0.85;;
35444;SDS011;21562;49.476;6.086;2022-09-12T15:43:02;1.83;;;0.77;;
35444;SDS011;21562;49.476;6.086;2022-09-12T15:45:29;2.35;;;0.77;;
35444;SDS011;21562;49.476;6.086;2022-09-12T15:47:56;2.03;;;1.00;;
35444;SDS011;21562;49.476;6.086;2022-09-12T15:50:22;2.05;;;0.90;;
35444;SDS011;21562;49.476;6.086;2022-09-12T15:52:48;1.60;;;0.65;;
35444;SDS011;21562;49.476;6.086;2022-09-12T15:55:15;1.17;;;0.70;;
35444;SDS011;21562;49.476;6.086;2022-09-12T15:57:43;4.40;;;0.80;;
35444;SDS011;21562;49.476;6.086;2022-09-12T16:00:09;2.65;;;1.02;;
35444;SDS011;21562;49.476;6.086;2022-09-12T16:02:36;9.20;;;0.98;;
35444;SDS011;21562;49.476;6.086;2022-09-12T16:05:02;1.58;;;1.15;;
35444;SDS011;21562;49.476;6.086;2022-09-12T16:07:28;1.17;;;1.00;;
35444;SDS011;21562;49.476;6.086;2022-09-12T16:09:54;1.95;;;1.10;;
35444;SDS011;21562;49.476;6.086;2022-09-12T16:12:20;1.15;;;0.73;;
35444;SDS011;21562;49.476;6.086;2022-09-12T16:14:45;1.98;;;0.68;;
35444;SDS011;21562;49.476;6.086;2022-09-12T16:17:11;1.58;;;0.63;;
35444;SDS011;21562;49.476;6.086;2022-09-12T16:19:36;0.93;;;0.60;;
35444;SDS011;21562;49.476;6.086;2022-09-12T16:22:02;0.80;;;0.77;;
35444;SDS011;21562;49.476;6.086;2022-09-12T16:24:28;4.22;;;0.60;;
35444;SDS011;21562;49.476;6.086;2022-09-12T16:26:53;1.45;;;1.00;;
35444;SDS011;21562;49.476;6.086;2022-09-12T16:29:19;1.67;;;1.10;;
35444;SDS011;21562;49.476;6.086;2022-09-12T16:31:44;4.28;;;1.00;;
35444;SDS011;21562;49.476;6.086;2022-09-12T16:34:10;2.13;;;1.17;;
35444;SDS011;21562;49.476;6.086;2022-09-12T16:36:36;3.40;;;0.90;;
35444;SDS011;21562;49.476;6.086;2022-09-12T16:39:02;3.25;;;1.20;;
35444;SDS011;21562;49.476;6.086;2022-09-12T16:41:28;5.32;;;1.67;;
35444;SDS011;21562;49.476;6.086;2022-09-12T16:43:53;1.98;;;1.10;;
35444;SDS011;21562;49.476;6.086;2022-09-12T16:46:20;2.85;;;1.20;;
35444;SDS011;21562;49.476;6.086;2022-09-12T16:48:50;4.68;;;1.40;;
35444;SDS011;21562;49.476;6.086;2022-09-12T16:51:18;4.45;;;1.80;;
35444;SDS011;21562;49.476;6.086;2022-09-12T16:53:46;4.15;;;2.40;;
35444;SDS011;21562;49.476;6.086;2022-09-12T16:56:12;4.90;;;2.00;;
35444;SDS011;21562;49.476;6.086;2022-09-12T16:58:39;5.32;;;1.55;;
35444;SDS011;21562;49.476;6.086;2022-09-12T17:01:07;2.45;;;1.45;;
35444;SDS011;21562;49.476;6.086;2022-09-12T17:03:38;2.95;;;1.63;;
35444;SDS011;21562;49.476;6.086;2022-09-12T17:06:11;4.70;;;1.40;;
35444;SDS011;21562;49.476;6.086;2022-09-12T17:08:39;4.32;;;1.38;;
35444;SDS011;21562;49.476;6.086;2022-09-12T17:11:10;6.20;;;1.55;;
35444;SDS011;21562;49.476;6.086;2022-09-12T17:13:38;3.70;;;1.40;;
35444;SDS011;21562;49.476;6.086;2022-09-12T17:16:08;5.80;;;1.27;;
35444;SDS011;21562;49.476;6.086;2022-09-12T17:18:35;3.92;;;1.30;;
35444;SDS011;21562;49.476;6.086;2022-09-12T17:21:02;1.63;;;1.15;;
35444;SDS011;21562;49.476;6.086;2022-09-12T17:23:28;1.63;;;0.95;;
35444;SDS011;21562;49.476;6.086;2022-09-12T17:25:53;3.55;;;2.00;;
35444;SDS011;21562;49.476;6.086;2022-09-12T17:28:20;5.30;;;2.28;;
35444;SDS011;21562;49.476;6.086;2022-09-12T17:30:45;5.50;;;3.58;;
35444;SDS011;21562;49.476;6.086;2022-09-12T17:33:11;6.55;;;1.70;;
35444;SDS011;21562;49.476;6.086;2022-09-12T17:35:38;3.08;;;1.40;;
35444;SDS011;21562;49.476;6.086;2022-09-12T17:38:06;5.82;;;1.50;;